createdAt,value
2023-01-17T00:00:43.707Z,972.9
2023-01-17T00:01:44.713Z,972.8
2023-01-17T00:02:45.716Z,972.9
2023-01-17T00:03:46.867Z,972.9
2023-01-17T00:04:48.042Z,973
2023-01-17T00:05:49.773Z,973
2023-01-17T00:06:50.694Z,972.9
2023-01-17T00:07:51.661Z,972.9
2023-01-17T00:08:52.697Z,972.9
2023-01-17T00:09:53.675Z,973
2023-01-17T00:10:54.693Z,973
2023-01-17T00:11:55.694Z,973
2023-01-17T00:12:56.735Z,973
2023-01-17T00:13:57.780Z,972.9
2023-01-17T00:14:58.812Z,973
2023-01-17T00:15:59.828Z,972.9
2023-01-17T00:17:00.793Z,972.9
2023-01-17T00:18:01.849Z,973.1
2023-01-17T00:19:02.773Z,973
2023-01-17T00:20:03.769Z,972.9
2023-01-17T00:21:04.807Z,972.9
2023-01-17T00:22:05.753Z,972.9
2023-01-17T00:23:06.733Z,972.9
2023-01-17T00:24:10.518Z,972.9
2023-01-17T00:25:11.733Z,972.9
2023-01-17T00:26:12.778Z,972.9
2023-01-17T00:27:13.813Z,972.9
2023-01-17T00:28:14.810Z,972.9
2023-01-17T00:29:15.797Z,972.9
2023-01-17T00:30:16.773Z,972.5
2023-01-17T00:31:17.847Z,972.6
2023-01-17T00:32:18.752Z,972.9
2023-01-17T00:33:19.782Z,972.9
2023-01-17T00:34:20.713Z,972.9
2023-01-17T00:35:21.802Z,972.8
2023-01-17T00:36:22.713Z,972.8
2023-01-17T00:37:23.662Z,972.9
2023-01-17T00:38:24.752Z,972.8
2023-01-17T00:39:25.740Z,972.9
2023-01-17T00:40:26.695Z,972.8
2023-01-17T00:41:27.753Z,972.8
2023-01-17T00:42:28.815Z,972.8
2023-01-17T00:43:29.787Z,972.8
2023-01-17T00:44:30.792Z,972.8
2023-01-17T00:45:32.133Z,972.8
2023-01-17T00:46:34.056Z,972.8
2023-01-17T00:47:34.813Z,972.4
2023-01-17T00:48:35.753Z,972.8
2023-01-17T00:49:36.773Z,971.3
2023-01-17T00:50:37.698Z,972.5
2023-01-17T00:51:38.792Z,972.8
2023-01-17T00:52:39.714Z,972.8
2023-01-17T00:53:40.737Z,972.7
2023-01-17T00:54:41.837Z,972.7
2023-01-17T00:55:42.722Z,972.7
2023-01-17T00:56:43.853Z,972.7
2023-01-17T00:57:44.775Z,972.7
2023-01-17T00:58:45.797Z,972.7
2023-01-17T00:59:46.721Z,972.8
2023-01-17T01:00:48.040Z,972.8
2023-01-17T01:01:49.944Z,972.9
2023-01-17T01:02:50.770Z,972.9
2023-01-17T01:03:51.794Z,972.9
2023-01-17T01:04:52.833Z,972.9
2023-01-17T01:05:53.754Z,972.9
2023-01-17T01:06:54.794Z,972.9
2023-01-17T01:07:55.757Z,973
2023-01-17T01:08:56.730Z,972.6
2023-01-17T01:09:57.763Z,972.9
2023-01-17T01:10:58.794Z,972.9
2023-01-17T01:11:59.782Z,972.9
2023-01-17T01:13:00.797Z,972.9
2023-01-17T01:14:01.735Z,972.9
2023-01-17T01:15:02.818Z,972.9
2023-01-17T01:16:03.858Z,972.9
2023-01-17T01:17:04.766Z,972.9
2023-01-17T01:18:05.795Z,972.9
2023-01-17T01:19:06.743Z,972.9
2023-01-17T01:20:07.761Z,972.9
2023-01-17T01:21:08.792Z,972.9
2023-01-17T01:22:09.771Z,972.9
2023-01-17T01:23:10.756Z,972.2
2023-01-17T01:24:11.744Z,972.3
2023-01-17T01:25:12.796Z,972.5
2023-01-17T01:26:13.834Z,972.9
2023-01-17T01:27:14.813Z,972.9
2023-01-17T01:28:15.782Z,972.8
2023-01-17T01:29:16.829Z,972.9
2023-01-17T01:30:17.805Z,972.9
2023-01-17T01:31:18.893Z,972.9
2023-01-17T01:32:19.822Z,972.9
2023-01-17T01:33:20.937Z,972.9
2023-01-17T01:34:21.873Z,973
2023-01-17T01:35:22.772Z,973
2023-01-17T01:36:23.775Z,973
2023-01-17T01:37:24.801Z,973
2023-01-17T01:38:25.768Z,973
2023-01-17T01:39:26.714Z,973
2023-01-17T01:40:27.812Z,972.9
2023-01-17T01:41:28.797Z,972.6
2023-01-17T01:42:29.818Z,972.5
2023-01-17T01:43:30.813Z,972.9
2023-01-17T01:44:31.794Z,973.1
2023-01-17T01:45:32.881Z,973
2023-01-17T01:46:33.882Z,972.9
2023-01-17T01:47:34.793Z,972.9
2023-01-17T01:48:35.817Z,972.9
2023-01-17T01:49:36.815Z,972.8
2023-01-17T01:50:37.833Z,972.8
2023-01-17T01:51:38.850Z,972.8
2023-01-17T01:52:39.773Z,972.8
2023-01-17T01:53:40.759Z,972.8
2023-01-17T01:54:41.777Z,972.8
2023-01-17T01:55:42.756Z,972.3
2023-01-17T01:56:43.871Z,972.6
2023-01-17T01:57:44.789Z,972.3
2023-01-17T01:58:45.813Z,972.7
2023-01-17T01:59:46.833Z,972.7
2023-01-17T02:00:48.199Z,972.9
2023-01-17T02:01:48.946Z,972.8
2023-01-17T02:02:49.746Z,972.8
2023-01-17T02:07:18.852Z,972.6
2023-01-17T02:08:19.728Z,972.6
2023-01-17T02:09:20.793Z,972.6
2023-01-17T02:10:21.835Z,972.6
2023-01-17T02:11:22.798Z,972.6
2023-01-17T02:12:23.803Z,972.6
2023-01-17T02:13:24.716Z,972.6
2023-01-17T02:14:25.773Z,972.6
2023-01-17T02:15:26.817Z,972.6
2023-01-17T02:16:27.938Z,972.6
2023-01-17T02:17:28.836Z,972.6
2023-01-17T02:18:29.813Z,972.6
2023-01-17T02:19:30.793Z,972.6
2023-01-17T02:20:31.914Z,972.6
2023-01-17T02:21:32.852Z,972.6
2023-01-17T02:22:33.813Z,972.6
2023-01-17T02:23:34.786Z,972.7
2023-01-17T02:24:35.800Z,972.8
2023-01-17T02:25:36.874Z,972.6
2023-01-17T02:26:37.813Z,972.8
2023-01-17T02:27:38.835Z,972.7
2023-01-17T02:28:39.755Z,972.5
2023-01-17T02:29:40.924Z,972.6
2023-01-17T02:30:41.893Z,972.5
2023-01-17T02:31:42.883Z,972.6
2023-01-17T02:32:44.071Z,972.5
2023-01-17T02:33:45.752Z,972.6
2023-01-17T02:34:46.842Z,972.6
2023-01-17T02:35:48.175Z,972.6
2023-01-17T02:36:49.872Z,972.6
2023-01-17T02:37:50.895Z,972.7
2023-01-17T02:38:51.877Z,972.6
2023-01-17T02:39:52.844Z,972.6
2023-01-17T02:40:53.853Z,972.5
2023-01-17T02:41:54.843Z,972.5
2023-01-17T02:42:55.779Z,972.5
2023-01-17T02:43:56.855Z,971.7
2023-01-17T02:44:57.875Z,972.3
2023-01-17T02:45:58.872Z,972.5
2023-01-17T02:46:59.856Z,972.6
2023-01-17T02:48:00.832Z,972.5
2023-01-17T02:49:01.855Z,972.5
2023-01-17T02:50:02.895Z,972.5
2023-01-17T02:51:03.820Z,972.4
2023-01-17T02:52:04.853Z,972.4
2023-01-17T02:53:05.837Z,972.5
2023-01-17T02:54:06.842Z,972.5
2023-01-17T02:55:07.783Z,972.5
2023-01-17T02:56:08.805Z,972.5
2023-01-17T02:57:09.757Z,972.5
2023-01-17T02:58:10.776Z,972.5
2023-01-17T02:59:11.807Z,972.5
2023-01-17T03:00:12.775Z,972.1
2023-01-17T03:01:13.919Z,972.4
2023-01-17T03:02:15.011Z,972.5
2023-01-17T03:03:15.854Z,972.6
2023-01-17T03:04:16.904Z,972.6
2023-01-17T03:05:19.584Z,972.6
2023-01-17T03:06:18.874Z,972.5
2023-01-17T03:07:19.894Z,972.5
2023-01-17T03:08:20.834Z,972.4
2023-01-17T03:09:21.835Z,972.7
2023-01-17T03:10:22.778Z,972.5
2023-01-17T03:11:23.850Z,972.5
2023-01-17T03:12:24.883Z,972.4
2023-01-17T03:13:25.807Z,972.5
2023-01-17T03:14:26.802Z,972.4
2023-01-17T03:15:27.755Z,972.4
2023-01-17T03:16:28.809Z,972.4
2023-01-17T03:17:29.846Z,972.4
2023-01-17T03:18:30.795Z,972.1
2023-01-17T03:19:31.817Z,972.4
2023-01-17T03:20:32.814Z,972.5
2023-01-17T03:21:33.815Z,972.5
2023-01-17T03:22:34.820Z,972.4
2023-01-17T03:23:35.801Z,972.6
2023-01-17T03:24:36.748Z,972.5
2023-01-17T03:25:37.896Z,972.4
2023-01-17T03:26:38.856Z,972.5
2023-01-17T03:27:39.866Z,972.5
2023-01-17T03:28:40.814Z,972.5
2023-01-17T03:29:41.794Z,972.5
2023-01-17T03:30:42.864Z,972.5
2023-01-17T03:31:43.835Z,972.5
2023-01-17T03:32:44.922Z,972.6
2023-01-17T03:33:45.894Z,972.6
2023-01-17T03:34:46.753Z,972.6
2023-01-17T03:35:48.303Z,972.6
2023-01-17T03:36:49.853Z,972.3
2023-01-17T03:37:50.812Z,972.6
2023-01-17T03:38:51.773Z,972.8
2023-01-17T03:39:52.832Z,972.7
2023-01-17T03:40:53.862Z,972.7
2023-01-17T03:41:54.894Z,972.7
2023-01-17T03:42:55.857Z,972.7
2023-01-17T03:43:56.782Z,972.6
2023-01-17T03:44:57.798Z,972.7
2023-01-17T03:45:58.882Z,972.7
2023-01-17T03:46:59.913Z,972.7
2023-01-17T03:48:00.882Z,972.7
2023-01-17T03:49:01.799Z,972.7
2023-01-17T03:50:02.840Z,972.7
2023-01-17T03:51:03.860Z,972.7
2023-01-17T03:52:04.802Z,972.8
2023-01-17T03:53:05.875Z,972.8
2023-01-17T03:54:06.855Z,972.8
2023-01-17T03:55:07.873Z,972.7
2023-01-17T03:56:08.932Z,972.5
2023-01-17T03:57:09.814Z,972.7
2023-01-17T03:58:10.856Z,972.8
2023-01-17T03:59:13.219Z,972.7
2023-01-17T04:00:12.829Z,972.7
2023-01-17T04:01:14.054Z,972.7
2023-01-17T04:02:15.047Z,972.7
2023-01-17T04:03:15.882Z,972.7
2023-01-17T04:04:16.978Z,972.7
2023-01-17T04:05:17.873Z,972.7
2023-01-17T04:06:18.876Z,972.7
2023-01-17T04:07:19.894Z,972.8
2023-01-17T04:08:20.851Z,972.8
2023-01-17T04:09:21.796Z,972.4
2023-01-17T04:10:25.834Z,972.8
2023-01-17T04:11:26.795Z,972.1
2023-01-17T04:12:27.826Z,972.8
2023-01-17T04:13:28.875Z,972.9
2023-01-17T04:14:29.896Z,972.9
2023-01-17T04:15:30.803Z,972.9
2023-01-17T04:16:31.983Z,972.9
2023-01-17T04:17:32.829Z,972.9
2023-01-17T04:18:33.945Z,972.9
2023-01-17T04:19:34.886Z,972.8
2023-01-17T04:20:35.873Z,972.8
2023-01-17T04:21:36.853Z,972.8
2023-01-17T04:22:37.834Z,972.8
2023-01-17T04:23:38.941Z,972.8
2023-01-17T04:24:39.816Z,972.5
2023-01-17T04:25:40.892Z,972.8
2023-01-17T04:26:41.833Z,972.8
2023-01-17T04:27:42.813Z,972.9
2023-01-17T04:28:43.936Z,973
2023-01-17T04:29:46.702Z,973
2023-01-17T04:30:45.971Z,972.9
2023-01-17T04:31:46.950Z,972.9
2023-01-17T04:32:48.215Z,972.9
2023-01-17T04:33:49.915Z,972.9
2023-01-17T04:34:50.854Z,972.8
2023-01-17T04:35:51.916Z,972.8
2023-01-17T04:36:52.853Z,972.7
2023-01-17T04:37:53.856Z,972.7
2023-01-17T04:38:54.875Z,972.8
2023-01-17T04:39:55.854Z,972.8
2023-01-17T04:40:56.876Z,972.8
2023-01-17T04:41:57.853Z,972.8
2023-01-17T04:42:58.893Z,972.7
2023-01-17T04:43:59.907Z,972.7
2023-01-17T04:45:00.893Z,972.4
2023-01-17T04:46:01.977Z,972.7
2023-01-17T04:47:02.893Z,972.7
2023-01-17T04:48:03.973Z,972.4
2023-01-17T04:49:04.902Z,972.7
2023-01-17T04:50:05.893Z,972.7
2023-01-17T04:51:06.894Z,972.8
2023-01-17T04:52:07.845Z,972.7
2023-01-17T04:53:08.913Z,972.7
2023-01-17T04:54:09.857Z,972.7
2023-01-17T04:55:10.914Z,972.7
2023-01-17T04:56:11.880Z,972.7
2023-01-17T04:57:12.954Z,972.7
2023-01-17T04:58:13.913Z,972.7
2023-01-17T04:59:14.867Z,972.7
2023-01-17T05:00:15.893Z,972.7
2023-01-17T05:01:17.049Z,972.8
2023-01-17T05:02:17.907Z,972.8
2023-01-17T05:03:18.933Z,972.8
2023-01-17T05:04:19.939Z,972.5
2023-01-17T05:05:20.834Z,972.4
2023-01-17T05:06:21.884Z,972.5
2023-01-17T05:07:22.854Z,972.8
2023-01-17T05:08:23.895Z,972.9
2023-01-17T05:09:24.842Z,972.9
2023-01-17T05:10:25.894Z,972.8
2023-01-17T05:11:26.873Z,972.8
2023-01-17T05:12:27.847Z,972.8
2023-01-17T05:13:28.873Z,972.7
2023-01-17T05:14:29.893Z,972.7
2023-01-17T05:15:30.898Z,972.7
2023-01-17T05:16:31.835Z,972.7
2023-01-17T05:17:32.913Z,972.7
2023-01-17T05:18:33.797Z,972.7
2023-01-17T05:19:34.886Z,972.6
2023-01-17T05:20:35.892Z,972.6
2023-01-17T05:21:36.838Z,972.6
2023-01-17T05:22:37.853Z,972.7
2023-01-17T05:23:38.824Z,972.8
2023-01-17T05:24:39.872Z,972.7
2023-01-17T05:25:40.920Z,972.7
2023-01-17T05:26:41.847Z,972.7
2023-01-17T05:27:42.851Z,972.6
2023-01-17T05:28:43.913Z,972.6
2023-01-17T05:29:44.945Z,972.6
2023-01-17T05:30:45.942Z,972.7
2023-01-17T05:31:46.912Z,972.7
2023-01-17T05:32:48.312Z,972.6
2023-01-17T05:33:49.883Z,972.7
2023-01-17T05:34:51.030Z,972.7
2023-01-17T05:35:51.876Z,972.7
2023-01-17T05:36:52.817Z,972.7
2023-01-17T05:37:53.877Z,972.7
2023-01-17T05:38:54.878Z,972.1
2023-01-17T05:39:55.878Z,972.2
2023-01-17T05:40:56.876Z,972.3
2023-01-17T05:41:57.829Z,972.3
2023-01-17T05:42:58.833Z,972.7
2023-01-17T05:43:59.912Z,972.8
2023-01-17T05:45:00.874Z,972.8
2023-01-17T05:46:01.900Z,972.8
2023-01-17T05:47:02.865Z,972.8
2023-01-17T05:48:03.844Z,972.8
2023-01-17T05:49:04.900Z,972.8
2023-01-17T05:50:05.958Z,972.8
2023-01-17T05:51:06.872Z,972.7
2023-01-17T05:52:07.913Z,972.7
2023-01-17T05:53:08.935Z,972
2023-01-17T05:54:09.836Z,972.6
2023-01-17T05:55:10.853Z,972.8
2023-01-17T05:56:11.833Z,972.8
2023-01-17T05:57:12.933Z,972.9
2023-01-17T05:58:13.992Z,972.5
2023-01-17T05:59:16.190Z,972.8
2023-01-17T06:00:15.953Z,972.4
2023-01-17T06:01:16.964Z,972.5
2023-01-17T06:02:17.920Z,972.5
2023-01-17T06:03:19.000Z,972.9
2023-01-17T06:04:19.960Z,973
2023-01-17T06:05:21.040Z,973
2023-01-17T06:06:21.858Z,973
2023-01-17T06:07:22.894Z,973
2023-01-17T06:08:24.256Z,973
2023-01-17T06:09:24.917Z,973
2023-01-17T06:10:25.853Z,973.3
2023-01-17T06:11:26.878Z,973.1
2023-01-17T06:12:27.868Z,973.1
2023-01-17T06:13:28.991Z,973.1
2023-01-17T06:14:29.935Z,973.1
2023-01-17T06:15:30.912Z,973.1
2023-01-17T06:16:31.898Z,973.1
2023-01-17T06:17:32.858Z,973.3
2023-01-17T06:18:33.892Z,973.2
2023-01-17T06:19:34.952Z,973.2
2023-01-17T06:20:35.879Z,973.2
2023-01-17T06:21:36.873Z,973.2
2023-01-17T06:22:37.892Z,973.2
2023-01-17T06:23:38.853Z,973.2
2023-01-17T06:24:39.836Z,973.2
2023-01-17T06:25:40.913Z,973.2
2023-01-17T06:26:41.933Z,973.2
2023-01-17T06:27:42.882Z,973.3
2023-01-17T06:28:43.952Z,973.3
2023-01-17T06:29:44.868Z,973.3
2023-01-17T06:30:45.954Z,973.3
2023-01-17T06:31:46.834Z,973.3
2023-01-17T06:32:48.344Z,973.4
2023-01-17T06:33:49.843Z,973.4
2023-01-17T06:34:50.851Z,973.4
2023-01-17T06:35:51.886Z,973.3
2023-01-17T06:36:52.851Z,973.3
2023-01-17T06:37:54.863Z,973.3
2023-01-17T06:38:55.913Z,973.3
2023-01-17T06:39:56.964Z,973.3
2023-01-17T06:40:57.933Z,973.4
2023-01-17T06:41:58.841Z,973.3
2023-01-17T06:42:59.911Z,973.4
2023-01-17T06:44:00.871Z,973.4
2023-01-17T06:45:01.901Z,973.3
2023-01-17T06:46:02.898Z,973.3
2023-01-17T06:47:03.851Z,973.4
2023-01-17T06:48:04.873Z,973.4
2023-01-17T06:49:05.918Z,973.5
2023-01-17T06:50:06.909Z,972.9
2023-01-17T06:51:07.991Z,973.4
2023-01-17T06:52:08.907Z,973.5
2023-01-17T06:53:09.875Z,973.5
2023-01-17T06:54:10.859Z,973.6
2023-01-17T06:55:11.935Z,973.6
2023-01-17T06:56:12.901Z,973.6
2023-01-17T06:57:13.936Z,973.6
2023-01-17T06:58:14.898Z,973.7
2023-01-17T06:59:15.912Z,973.6
2023-01-17T07:00:16.888Z,973.7
2023-01-17T07:01:18.979Z,973.7
2023-01-17T07:02:20.037Z,973.6
2023-01-17T07:03:20.939Z,973.6
2023-01-17T07:04:21.972Z,973.6
2023-01-17T07:05:22.911Z,973.6
2023-01-17T07:06:23.938Z,973.6
2023-01-17T07:07:24.875Z,973.6
2023-01-17T07:08:26.117Z,973.7
2023-01-17T07:09:26.983Z,973.7
2023-01-17T07:10:27.863Z,973.8
2023-01-17T07:11:28.960Z,973.8
2023-01-17T07:12:29.902Z,973.8
2023-01-17T07:13:31.152Z,973.9
2023-01-17T07:14:32.846Z,973.8
2023-01-17T07:15:34.024Z,973.9
2023-01-17T07:16:34.993Z,973.8
2023-01-17T07:17:36.136Z,973.9
2023-01-17T07:18:36.940Z,973.8
2023-01-17T07:19:37.902Z,973.9
2023-01-17T07:20:38.903Z,973.9
2023-01-17T07:21:39.973Z,973.9
2023-01-17T07:22:40.851Z,973.9
2023-01-17T07:23:41.860Z,973.8
2023-01-17T07:24:42.911Z,973.9
2023-01-17T07:25:43.903Z,973.8
2023-01-17T07:26:44.981Z,974
2023-01-17T07:27:45.941Z,974
2023-01-17T07:28:46.868Z,973.9
2023-01-17T07:29:48.394Z,973.9
2023-01-17T07:30:49.972Z,973.9
2023-01-17T07:31:51.073Z,974
2023-01-17T07:32:51.952Z,973.9
2023-01-17T07:33:52.941Z,973.9
2023-01-17T07:34:53.953Z,974
2023-01-17T07:35:54.972Z,974
2023-01-17T07:36:55.959Z,973.9
2023-01-17T07:37:56.915Z,973.9
2023-01-17T07:38:57.953Z,973.9
2023-01-17T07:39:58.895Z,973.9
2023-01-17T07:41:00.130Z,973.9
2023-01-17T07:42:01.931Z,973.9
2023-01-17T07:43:02.874Z,973.9
2023-01-17T07:44:03.958Z,974
2023-01-17T07:45:04.935Z,974
2023-01-17T07:46:05.970Z,974
2023-01-17T07:47:07.073Z,974
2023-01-17T07:48:07.920Z,974
2023-01-17T07:49:08.991Z,974
2023-01-17T07:50:10.020Z,974
2023-01-17T07:51:10.971Z,974
2023-01-17T07:52:11.975Z,974.1
2023-01-17T07:53:12.879Z,974.2
2023-01-17T07:54:14.028Z,974.1
2023-01-17T07:55:15.371Z,974.1
2023-01-17T07:56:17.571Z,974.1
2023-01-17T07:57:18.992Z,974.1
2023-01-17T07:58:20.014Z,974.1
2023-01-17T07:59:20.931Z,974
2023-01-17T08:00:22.095Z,974.1
2023-01-17T08:01:24.131Z,974.1
2023-01-17T08:02:25.017Z,974.1
2023-01-17T08:03:25.906Z,974.1
2023-01-17T08:04:26.951Z,974.2
2023-01-17T08:05:27.970Z,974.2
2023-01-17T08:06:28.943Z,974.2
2023-01-17T08:07:30.000Z,974.2
2023-01-17T08:08:30.951Z,974.2
2023-01-17T08:09:32.087Z,974.3
2023-01-17T08:10:33.011Z,974.3
2023-01-17T08:11:33.971Z,974.3
2023-01-17T08:12:34.923Z,974.3
2023-01-17T08:13:35.930Z,974.3
2023-01-17T08:14:36.963Z,974.3
2023-01-17T08:15:37.925Z,974.2
2023-01-17T08:16:38.995Z,974.3
2023-01-17T08:17:39.930Z,974.3
2023-01-17T08:18:40.958Z,974.3
2023-01-17T08:19:41.979Z,974.4
2023-01-17T08:20:42.973Z,974.4
2023-01-17T08:21:43.978Z,974.4
2023-01-17T08:22:45.020Z,974.4
2023-01-17T08:23:46.051Z,974.4
2023-01-17T08:24:46.971Z,974.6
2023-01-17T08:25:48.566Z,974.4
2023-01-17T08:26:50.070Z,974.5
2023-01-17T08:27:51.111Z,974.2
2023-01-17T08:28:51.953Z,974.4
2023-01-17T08:29:52.931Z,974.5
2023-01-17T08:30:53.932Z,974.5
2023-01-17T08:31:55.004Z,974.5
2023-01-17T08:32:56.015Z,974.5
2023-01-17T08:33:56.953Z,974.5
2023-01-17T08:34:57.931Z,974.6
2023-01-17T08:35:58.995Z,974.6
2023-01-17T08:36:59.917Z,974.6
2023-01-17T08:38:01.063Z,974.6
2023-01-17T08:39:01.934Z,974.6
2023-01-17T08:40:02.939Z,974.6
2023-01-17T08:41:03.898Z,974.7
2023-01-17T08:42:04.972Z,974.6
2023-01-17T08:43:05.972Z,974.6
2023-01-17T08:44:06.971Z,974.6
2023-01-17T08:45:07.953Z,974.7
2023-01-17T08:46:09.030Z,974.7
2023-01-17T08:47:09.962Z,974.7
2023-01-17T08:48:11.028Z,974.7
2023-01-17T08:49:12.011Z,974.7
2023-01-17T08:50:13.028Z,974.7
2023-01-17T08:51:14.028Z,974.7
2023-01-17T08:52:15.052Z,974.6
2023-01-17T08:53:15.998Z,974.7
2023-01-17T08:54:17.055Z,974.7
2023-01-17T08:55:17.997Z,974.7
2023-01-17T08:56:18.970Z,974.7
2023-01-17T08:57:20.011Z,974.7
2023-01-17T08:58:20.971Z,974.7
2023-01-17T08:59:21.932Z,974.6
2023-01-17T09:00:22.993Z,974.7
2023-01-17T09:01:24.123Z,974.7
2023-01-17T09:02:24.955Z,974.7
2023-01-17T09:03:25.954Z,974.7
2023-01-17T09:04:27.116Z,974.7
2023-01-17T09:05:27.977Z,974.7
2023-01-17T09:06:28.962Z,974.7
2023-01-17T09:07:29.975Z,974.7
2023-01-17T09:08:30.961Z,974.7
2023-01-17T09:09:31.951Z,974.7
2023-01-17T09:10:32.952Z,974.7
2023-01-17T09:11:33.939Z,974.7
2023-01-17T09:12:34.951Z,974.7
2023-01-17T09:13:36.490Z,974.8
2023-01-17T09:14:38.015Z,974.8
2023-01-17T09:15:38.960Z,974.7
2023-01-17T09:16:40.144Z,974.7
2023-01-17T09:17:41.151Z,974.4
2023-01-17T09:18:42.050Z,974.6
2023-01-17T09:19:42.975Z,974.7
2023-01-17T09:20:43.963Z,974.8
2023-01-17T09:21:45.034Z,974.8
2023-01-17T09:22:46.217Z,974.8
2023-01-17T09:23:46.983Z,974.8
2023-01-17T09:24:48.556Z,974.8
2023-01-17T09:25:50.014Z,974.8
2023-01-17T09:26:50.978Z,974.9
2023-01-17T09:27:51.988Z,975
2023-01-17T09:28:52.984Z,974.8
2023-01-17T09:29:54.072Z,974.8
2023-01-17T09:30:55.002Z,974.8
2023-01-17T09:31:56.032Z,974.8
2023-01-17T09:32:56.995Z,974.8
2023-01-17T09:33:57.976Z,974.8
2023-01-17T09:34:58.972Z,974.8
2023-01-17T09:36:00.042Z,974.8
2023-01-17T09:37:01.171Z,974.8
2023-01-17T09:38:01.954Z,974.8
2023-01-17T09:39:03.074Z,974.8
2023-01-17T09:40:03.953Z,974.9
2023-01-17T09:41:05.048Z,974.8
2023-01-17T09:42:06.051Z,974.8
2023-01-17T09:43:07.045Z,974.7
2023-01-17T09:44:08.015Z,974.7
2023-01-17T09:45:08.992Z,974.7
2023-01-17T09:46:10.106Z,974.7
2023-01-17T09:47:11.047Z,974.7
2023-01-17T09:48:11.993Z,974.6
2023-01-17T09:49:13.030Z,974.6
2023-01-17T09:50:13.991Z,974.6
2023-01-17T09:51:15.411Z,974.7
2023-01-17T09:52:17.072Z,974.7
2023-01-17T09:53:17.968Z,974.7
2023-01-17T09:54:18.998Z,974.7
2023-01-17T09:55:20.034Z,974.6
2023-01-17T09:56:21.103Z,974.7
2023-01-17T09:57:22.027Z,974.8
2023-01-17T09:58:23.135Z,974.7
2023-01-17T09:59:32.137Z,974.7
2023-01-17T10:00:25.107Z,974.7
2023-01-17T10:01:26.205Z,974.7
2023-01-17T10:02:27.248Z,974.7
2023-01-17T10:03:28.178Z,974.6
2023-01-17T10:04:28.996Z,974.1
2023-01-17T10:05:30.049Z,974.5
2023-01-17T10:06:31.031Z,974.7
2023-01-17T10:07:32.060Z,974.7
2023-01-17T10:08:32.992Z,974.8
2023-01-17T10:09:34.057Z,974.9
2023-01-17T10:10:34.991Z,974.8
2023-01-17T10:11:35.992Z,974.8
2023-01-17T10:12:36.992Z,974.9
2023-01-17T10:13:38.017Z,974.9
2023-01-17T10:14:38.961Z,974.5
2023-01-17T10:15:40.373Z,974.7
2023-01-17T10:16:41.176Z,974.8
2023-01-17T10:17:41.968Z,974.8
2023-01-17T10:18:42.969Z,974.8
2023-01-17T10:19:43.975Z,974.8
2023-01-17T10:20:45.095Z,974.9
2023-01-17T10:21:46.097Z,975
2023-01-17T10:22:47.072Z,975
2023-01-17T10:23:47.992Z,974.9
2023-01-17T10:24:49.002Z,974.9
2023-01-17T10:25:50.060Z,974.9
2023-01-17T10:26:51.113Z,974.9
2023-01-17T10:27:52.092Z,974.9
2023-01-17T10:28:53.171Z,975.1
2023-01-17T10:29:54.032Z,975.1
2023-01-17T10:30:55.068Z,975.1
2023-01-17T10:31:55.979Z,974.7
2023-01-17T10:32:57.040Z,975
2023-01-17T10:33:58.066Z,974.7
2023-01-17T10:34:59.030Z,975.1
2023-01-17T10:36:00.119Z,975
2023-01-17T10:37:01.152Z,974.9
2023-01-17T10:38:02.006Z,975
2023-01-17T10:39:03.053Z,974.9
2023-01-17T10:40:04.056Z,974.9
2023-01-17T10:41:05.013Z,974.8
2023-01-17T10:42:06.020Z,974.8
2023-01-17T10:43:07.011Z,974.9
2023-01-17T10:44:08.014Z,974.9
2023-01-17T10:45:09.054Z,975
2023-01-17T10:46:10.034Z,974.9
2023-01-17T10:47:11.056Z,974.9
2023-01-17T10:48:12.049Z,974.9
2023-01-17T10:49:13.011Z,974.9
2023-01-17T10:50:14.091Z,974.8
2023-01-17T10:51:15.020Z,974.6
2023-01-17T10:52:16.092Z,974.9
2023-01-17T10:53:17.129Z,975.1
2023-01-17T10:54:18.068Z,975
2023-01-17T10:55:19.105Z,974.6
2023-01-17T10:56:20.138Z,974.9
2023-01-17T10:57:21.161Z,975
2023-01-17T10:58:22.119Z,975
2023-01-17T10:59:23.053Z,975
2023-01-17T11:00:24.031Z,975.1
2023-01-17T11:01:25.171Z,975.1
2023-01-17T11:02:26.176Z,975.1
2023-01-17T11:03:27.030Z,975.3
2023-01-17T11:04:28.072Z,975.2
2023-01-17T11:05:28.992Z,975.2
2023-01-17T11:06:30.013Z,975.2
2023-01-17T11:07:31.026Z,975.3
2023-01-17T11:08:32.071Z,975.3
2023-01-17T11:09:33.052Z,975.2
2023-01-17T11:10:34.016Z,975.2
2023-01-17T11:11:35.025Z,975.2
2023-01-17T11:12:36.052Z,975.2
2023-01-17T11:13:37.046Z,975.2
2023-01-17T11:14:38.024Z,975.1
2023-01-17T11:15:39.079Z,975.1
2023-01-17T11:16:40.019Z,975
2023-01-17T11:17:41.033Z,975
2023-01-17T11:18:42.113Z,975
2023-01-17T11:19:43.081Z,975
2023-01-17T11:20:44.044Z,975.1
2023-01-17T11:21:45.831Z,975
2023-01-17T11:22:46.100Z,975
2023-01-17T11:23:47.043Z,975.1
2023-01-17T11:24:48.051Z,975
2023-01-17T11:25:49.059Z,974.9
2023-01-17T11:26:50.037Z,974.9
2023-01-17T11:27:51.052Z,974.7
2023-01-17T11:28:52.038Z,974.8
2023-01-17T11:29:53.033Z,975
2023-01-17T11:30:54.085Z,975
2023-01-17T11:31:55.071Z,974.9
2023-01-17T11:32:56.053Z,974.9
2023-01-17T11:33:57.111Z,974.9
2023-01-17T11:34:58.033Z,974.9
2023-01-17T11:35:59.025Z,974.8
2023-01-17T11:37:00.051Z,974.9
2023-01-17T11:38:01.013Z,974.9
2023-01-17T11:39:02.238Z,974.8
2023-01-17T11:40:03.087Z,974.8
2023-01-17T11:41:04.029Z,974.8
2023-01-17T11:42:05.030Z,974.8
2023-01-17T11:43:06.081Z,974.8
2023-01-17T11:44:07.068Z,974.8
2023-01-17T11:45:07.995Z,974.9
2023-01-17T11:46:09.150Z,974.9
2023-01-17T11:47:10.076Z,974.9
2023-01-17T11:48:11.021Z,975
2023-01-17T11:49:12.080Z,975
2023-01-17T11:50:13.046Z,975
2023-01-17T11:51:14.079Z,974.9
2023-01-17T11:52:15.070Z,974.9
2023-01-17T11:53:16.071Z,974.9
2023-01-17T11:54:17.019Z,974.9
2023-01-17T11:55:18.026Z,975
2023-01-17T11:56:19.101Z,975
2023-01-17T11:57:19.991Z,974.9
2023-01-17T11:58:21.071Z,974.9
2023-01-17T11:59:22.171Z,974.9
2023-01-17T12:00:23.053Z,974.9
2023-01-17T12:01:24.083Z,974.9
2023-01-17T12:02:25.019Z,974.9
2023-01-17T12:03:26.147Z,974.9
2023-01-17T12:04:27.074Z,974.9
2023-01-17T12:05:28.031Z,974.9
2023-01-17T12:06:29.031Z,974.9
2023-01-17T12:07:30.035Z,974.9
2023-01-17T12:08:31.071Z,974.9
2023-01-17T12:09:32.491Z,974.9
2023-01-17T12:10:34.140Z,974.9
2023-01-17T12:11:35.080Z,974.9
2023-01-17T12:12:36.111Z,974.9
2023-01-17T12:13:37.095Z,974.9
2023-01-17T12:14:38.224Z,974.9
2023-01-17T12:15:39.092Z,974.8
2023-01-17T12:16:40.034Z,974.9
2023-01-17T12:17:41.037Z,974.8
2023-01-17T12:18:42.071Z,974.8
2023-01-17T12:19:43.131Z,974.8
2023-01-17T12:20:44.054Z,974.9
2023-01-17T12:21:45.172Z,974.8
2023-01-17T12:22:46.003Z,974.8
2023-01-17T12:23:47.016Z,974.8
2023-01-17T12:24:48.066Z,974.8
2023-01-17T12:25:49.050Z,974.7
2023-01-17T12:26:50.206Z,974.7
2023-01-17T12:27:51.147Z,974.7
2023-01-17T12:28:52.111Z,974.7
2023-01-17T12:29:53.054Z,974.7
2023-01-17T12:30:54.125Z,974.7
2023-01-17T12:31:55.086Z,974.7
2023-01-17T12:32:56.094Z,974.8
2023-01-17T12:33:57.117Z,974.7
2023-01-17T12:34:58.017Z,974.7
2023-01-17T12:35:59.071Z,974.7
2023-01-17T12:37:00.066Z,974.7
2023-01-17T12:38:05.082Z,974.8
2023-01-17T12:39:02.140Z,974.8
2023-01-17T12:40:03.072Z,974.7
2023-01-17T12:41:04.072Z,974.4
2023-01-17T12:42:05.088Z,974.7
2023-01-17T12:43:06.071Z,974.7
2023-01-17T12:44:07.084Z,974.8
2023-01-17T12:45:08.056Z,974.7
2023-01-17T12:46:09.070Z,974.7
2023-01-17T12:47:10.069Z,974.8
2023-01-17T12:48:11.096Z,974.8
2023-01-17T12:49:12.071Z,974.8
2023-01-17T12:50:13.210Z,974.7
2023-01-17T12:51:14.093Z,974.3
2023-01-17T12:52:15.156Z,974.6
2023-01-17T12:53:16.075Z,974.7
2023-01-17T12:54:17.080Z,974.6
2023-01-17T12:55:18.071Z,974.7
2023-01-17T12:56:20.872Z,974.8
2023-01-17T12:57:22.695Z,974.7
2023-01-17T12:58:24.090Z,974.7
2023-01-17T12:59:25.090Z,974.7
2023-01-17T13:00:26.159Z,974
2023-01-17T13:01:27.130Z,974.5
2023-01-17T13:02:28.179Z,974.6
2023-01-17T13:03:31.731Z,974.6
2023-01-17T13:04:33.194Z,974.6
2023-01-17T13:05:34.055Z,974.4
2023-01-17T13:06:35.072Z,974.6
2023-01-17T13:07:36.078Z,974.6
2023-01-17T13:08:37.055Z,974.8
2023-01-17T13:09:38.097Z,974.8
2023-01-17T13:10:39.102Z,974.8
2023-01-17T13:11:40.023Z,974.8
2023-01-17T13:12:41.174Z,974.8
2023-01-17T13:13:42.154Z,974.8